createdAt,value
2019-02-10T00:01:15.051Z,2.87
2019-02-10T00:03:45.938Z,1.90
2019-02-10T00:06:24.610Z,2.70
2019-02-10T00:08:52.913Z,2.17
2019-02-10T00:11:25.775Z,2.60
2019-02-10T00:13:59.249Z,2.33
2019-02-10T00:16:32.209Z,2.17
2019-02-10T00:19:03.182Z,2.17
2019-02-10T00:21:35.370Z,2.53
2019-02-10T00:24:06.020Z,2.17
2019-02-10T00:26:38.250Z,2.17
2019-02-10T00:29:11.095Z,2.57
2019-02-10T00:31:42.317Z,2.60
2019-02-10T00:34:14.016Z,2.10
2019-02-10T00:36:45.208Z,2.63
2019-02-10T00:39:16.257Z,2.47
2019-02-10T00:41:47.095Z,2.30
2019-02-10T00:44:21.319Z,3.27
2019-02-10T00:46:52.506Z,2.30
2019-02-10T00:49:26.120Z,2.33
2019-02-10T00:52:03.304Z,3.43
2019-02-10T00:54:34.282Z,2.73
2019-02-10T00:57:10.572Z,1.90
2019-02-10T00:59:41.112Z,2.30
2019-02-10T01:02:11.942Z,2.53
2019-02-10T01:04:42.617Z,2.37
2019-02-10T01:07:14.357Z,2.30
2019-02-10T01:09:45.267Z,2.03
2019-02-10T01:12:16.087Z,3.07
2019-02-10T01:14:46.734Z,2.67
2019-02-10T01:17:21.239Z,2.80
2019-02-10T01:19:53.082Z,2.03
2019-02-10T01:22:24.086Z,2.93
2019-02-10T01:24:54.970Z,2.30
2019-02-10T01:27:26.341Z,2.37
2019-02-10T01:29:59.420Z,2.23
2019-02-10T01:32:29.649Z,2.50
2019-02-10T01:35:00.471Z,3.07
2019-02-10T01:37:31.224Z,2.13
2019-02-10T01:40:02.155Z,3.13
2019-02-10T01:42:33.310Z,2.90
2019-02-10T01:45:04.432Z,2.77
2019-02-10T01:47:35.284Z,2.33
2019-02-10T01:50:08.010Z,2.70
2019-02-10T01:52:38.916Z,2.63
2019-02-10T01:55:12.080Z,1.80
2019-02-10T01:57:43.095Z,2.60
2019-02-10T02:00:16.484Z,2.70
2019-02-10T02:02:47.517Z,2.87
2019-02-10T02:05:18.868Z,2.20
2019-02-10T02:07:50.009Z,2.13
2019-02-10T02:10:20.976Z,1.97
2019-02-10T02:12:52.127Z,2.10
2019-02-10T02:15:24.632Z,2.23
2019-02-10T02:17:58.388Z,2.17
2019-02-10T02:20:30.980Z,2.47
2019-02-10T02:23:01.574Z,2.20
2019-02-10T02:25:32.857Z,2.27
2019-02-10T02:28:03.651Z,2.67
2019-02-10T02:30:34.464Z,2.47
2019-02-10T02:33:05.318Z,1.93
2019-02-10T02:35:36.205Z,2.43
2019-02-10T02:38:07.905Z,2.60
2019-02-10T02:40:38.450Z,2.60
2019-02-10T02:43:12.601Z,2.77
2019-02-10T02:45:45.044Z,2.53
2019-02-10T02:48:15.907Z,2.40
2019-02-10T02:50:46.551Z,2.73
2019-02-10T02:53:17.721Z,3.17
2019-02-10T02:55:48.527Z,2.30
2019-02-10T02:58:19.742Z,3.03
2019-02-10T03:00:50.846Z,3.13
2019-02-10T03:03:22.002Z,2.20
2019-02-10T03:05:52.914Z,2.90
2019-02-10T03:08:25.232Z,2.83
2019-02-10T03:10:55.981Z,2.47
2019-02-10T03:13:27.261Z,3.47
2019-02-10T03:16:05.653Z,2.10
2019-02-10T03:18:36.422Z,2.57
2019-02-10T03:21:07.074Z,2.17
2019-02-10T03:23:38.009Z,2.63
2019-02-10T03:26:08.543Z,2.50
2019-02-10T03:28:39.575Z,2.63
2019-02-10T03:31:10.417Z,2.50
2019-02-10T03:33:41.247Z,3.27
2019-02-10T03:36:12.612Z,1.90
2019-02-10T03:38:43.873Z,2.93
2019-02-10T03:41:14.790Z,2.80
2019-02-10T03:43:45.781Z,2.37
2019-02-10T03:46:16.976Z,2.63
2019-02-10T03:48:47.739Z,2.80
2019-02-10T03:51:21.373Z,2.37
2019-02-10T03:53:54.925Z,2.67
2019-02-10T03:56:26.517Z,3.20
2019-02-10T03:58:59.184Z,2.93
2019-02-10T04:01:29.854Z,3.17
2019-02-10T04:04:01.623Z,2.10
2019-02-10T04:06:32.193Z,2.60
2019-02-10T04:09:04.240Z,2.90
2019-02-10T04:11:34.983Z,2.53
2019-02-10T04:14:05.778Z,3.00
2019-02-10T04:16:37.165Z,2.77
2019-02-10T04:19:08.278Z,2.90
2019-02-10T04:21:39.303Z,2.50
2019-02-10T04:24:10.533Z,2.63
2019-02-10T04:26:41.384Z,2.63
2019-02-10T04:29:12.072Z,3.10
2019-02-10T04:31:42.775Z,2.40
2019-02-10T04:34:13.689Z,2.63
2019-02-10T04:36:44.341Z,2.87
2019-02-10T04:39:15.247Z,2.70
2019-02-10T04:41:45.998Z,3.40
2019-02-10T04:44:16.781Z,2.23
2019-02-10T04:46:47.960Z,2.50
2019-02-10T04:49:19.094Z,2.77
2019-02-10T04:51:49.652Z,2.03
2019-02-10T04:54:20.379Z,2.80
2019-02-10T04:56:52.713Z,2.60
2019-02-10T04:59:23.538Z,2.63
2019-02-10T05:01:54.355Z,2.80
2019-02-10T05:04:25.462Z,3.00
2019-02-10T05:06:56.130Z,3.07
2019-02-10T05:09:27.193Z,2.97
2019-02-10T05:11:58.108Z,2.00
2019-02-10T05:14:28.674Z,2.53
2019-02-10T05:16:59.435Z,2.13
2019-02-10T05:19:30.445Z,2.07
2019-02-10T05:22:01.293Z,2.40
2019-02-10T05:24:32.440Z,3.40
2019-02-10T05:27:03.154Z,2.67
2019-02-10T05:29:33.763Z,2.93
2019-02-10T05:32:04.551Z,2.80
2019-02-10T05:34:35.287Z,3.73
2019-02-10T05:37:06.750Z,2.67
2019-02-10T05:39:38.005Z,2.20
2019-02-10T05:42:08.806Z,3.03
2019-02-10T05:44:39.459Z,2.47
2019-02-10T05:47:10.774Z,3.20
2019-02-10T05:49:42.010Z,2.30
2019-02-10T05:52:12.679Z,2.87
2019-02-10T05:54:43.615Z,3.07
2019-02-10T05:57:14.978Z,2.23
2019-02-10T05:59:45.702Z,2.73
2019-02-10T06:02:26.853Z,2.50
2019-02-10T06:05:09.859Z,2.93
2019-02-10T06:07:40.559Z,2.93
2019-02-10T06:10:11.352Z,2.23
2019-02-10T06:12:44.324Z,2.67
2019-02-10T06:15:15.037Z,2.63
2019-02-10T06:17:46.643Z,3.00
2019-02-10T06:20:17.530Z,2.50
2019-02-10T06:22:48.180Z,2.20
2019-02-10T06:25:18.957Z,2.40
2019-02-10T06:27:49.992Z,2.50
2019-02-10T06:30:20.856Z,2.40
2019-02-10T06:32:53.008Z,2.33
2019-02-10T06:35:23.780Z,3.20
2019-02-10T06:37:54.932Z,2.30
2019-02-10T06:40:25.730Z,2.57
2019-02-10T06:42:56.439Z,2.73
2019-02-10T06:45:28.214Z,2.67
2019-02-10T06:47:59.066Z,2.93
2019-02-10T06:50:31.997Z,2.70
2019-02-10T06:53:02.897Z,3.03
2019-02-10T06:55:33.705Z,3.30
2019-02-10T06:58:06.696Z,2.67
2019-02-10T07:00:44.463Z,2.73
2019-02-10T07:03:44.744Z,3.03
2019-02-10T07:06:17.104Z,3.37
2019-02-10T07:08:48.097Z,3.40
2019-02-10T07:11:19.651Z,3.43
2019-02-10T07:14:03.659Z,3.33
2019-02-10T07:17:00.561Z,3.50
2019-02-10T07:20:07.834Z,3.00
2019-02-10T07:23:25.081Z,2.97
2019-02-10T07:26:01.083Z,2.93
2019-02-10T07:29:24.631Z,2.37
2019-02-10T07:32:02.939Z,3.17
2019-02-10T07:34:58.660Z,3.50
2019-02-10T07:37:59.414Z,3.07
2019-02-10T07:41:04.011Z,2.80
2019-02-10T07:43:53.131Z,3.27
2019-02-10T07:46:48.091Z,2.73
2019-02-10T07:49:54.983Z,3.57
2019-02-10T07:52:41.386Z,2.70
2019-02-10T07:55:34.978Z,3.40
2019-02-10T07:58:26.886Z,2.43
2019-02-10T08:01:41.336Z,2.53
2019-02-10T08:04:45.668Z,2.63
2019-02-10T08:07:46.044Z,2.90
2019-02-10T08:11:11.444Z,2.60
2019-02-10T08:14:06.294Z,2.53
2019-02-10T08:17:05.915Z,2.73
2019-02-10T08:20:16.818Z,2.07
2019-02-10T08:23:33.395Z,2.37
2019-02-10T08:27:02.668Z,2.00
2019-02-10T08:30:27.367Z,2.43
2019-02-10T08:33:21.809Z,3.53
2019-02-10T08:36:11.865Z,2.50
2019-02-10T08:39:23.208Z,2.43
2019-02-10T08:42:22.425Z,2.20
2019-02-10T08:45:24.498Z,2.53
2019-02-10T08:48:31.114Z,2.77
2019-02-10T08:51:42.844Z,2.30
2019-02-10T08:54:15.093Z,2.37
2019-02-10T08:56:57.688Z,1.93
2019-02-10T08:59:33.765Z,2.17
2019-02-10T09:02:07.513Z,2.23
2019-02-10T09:04:38.745Z,2.40
2019-02-10T09:07:09.692Z,1.90
2019-02-10T09:09:40.714Z,2.20
2019-02-10T09:12:15.309Z,1.77
2019-02-10T09:14:46.292Z,2.20
2019-02-10T09:17:19.835Z,2.00
2019-02-10T09:19:51.900Z,1.70
2019-02-10T09:22:22.680Z,1.83
2019-02-10T09:24:57.080Z,1.90
2019-02-10T09:27:28.659Z,1.63
2019-02-10T09:29:59.413Z,1.83
2019-02-10T09:32:29.966Z,1.63
2019-02-10T09:35:04.024Z,1.53
2019-02-10T09:37:34.936Z,1.60
2019-02-10T09:40:07.559Z,1.67
2019-02-10T09:42:38.681Z,1.77
2019-02-10T09:45:14.105Z,1.70
2019-02-10T09:47:45.024Z,1.80
2019-02-10T09:50:18.512Z,2.10
2019-02-10T09:52:49.202Z,1.50
2019-02-10T09:55:19.974Z,1.50
2019-02-10T09:57:51.007Z,1.63
2019-02-10T10:00:21.929Z,1.27
2019-02-10T10:02:53.413Z,1.47
2019-02-10T10:05:24.054Z,1.70
2019-02-10T10:07:54.713Z,1.30
2019-02-10T10:10:25.801Z,1.37
2019-02-10T10:12:56.608Z,1.47
2019-02-10T10:15:27.298Z,1.20
2019-02-10T10:18:00.085Z,1.43
2019-02-10T10:20:30.960Z,1.40
2019-02-10T10:23:03.280Z,1.40
2019-02-10T10:25:34.479Z,1.60
2019-02-10T10:28:05.623Z,1.50
2019-02-10T10:30:36.576Z,1.40
2019-02-10T10:33:07.353Z,1.30
2019-02-10T10:35:38.220Z,1.30
2019-02-10T10:38:11.097Z,1.43
2019-02-10T10:40:42.109Z,1.60
2019-02-10T10:43:15.124Z,1.47
2019-02-10T10:45:46.249Z,1.50
2019-02-10T10:48:21.658Z,1.30
2019-02-10T10:50:52.563Z,1.63
2019-02-10T10:53:23.557Z,1.20
2019-02-10T10:55:59.142Z,1.50
2019-02-10T10:58:30.834Z,1.20
2019-02-10T11:01:03.833Z,1.30
2019-02-10T11:03:39.548Z,1.20
2019-02-10T11:06:17.583Z,1.40
2019-02-10T11:09:00.816Z,1.80
2019-02-10T11:11:39.961Z,1.10
2019-02-10T11:14:10.837Z,1.57
2019-02-10T11:16:42.938Z,1.43
2019-02-10T11:19:16.314Z,1.57
2019-02-10T11:21:49.323Z,1.40
2019-02-10T11:24:19.779Z,1.43
2019-02-10T11:26:53.859Z,1.10
2019-02-10T11:29:27.018Z,1.03
2019-02-10T11:31:58.031Z,1.57
2019-02-10T11:34:30.022Z,1.47
2019-02-10T11:37:01.044Z,1.50
2019-02-10T11:39:33.220Z,1.33
2019-02-10T11:42:04.093Z,1.60
2019-02-10T11:44:36.773Z,1.30
2019-02-10T11:47:13.634Z,1.10
2019-02-10T11:49:46.622Z,0.90
2019-02-10T11:52:21.852Z,1.67
2019-02-10T11:57:41.989Z,1.07
2019-02-10T12:00:15.663Z,1.20
2019-02-10T12:02:49.381Z,1.30
2019-02-10T12:05:24.929Z,1.33
2019-02-10T12:07:56.241Z,1.07
2019-02-10T12:10:26.960Z,1.40
2019-02-10T12:12:58.328Z,1.20
2019-02-10T12:15:29.379Z,1.70
2019-02-10T12:18:00.196Z,1.40
2019-02-10T12:20:34.240Z,1.23
2019-02-10T12:23:06.932Z,1.33
2019-02-10T12:25:40.499Z,1.40
2019-02-10T12:28:11.208Z,1.13
2019-02-10T12:30:42.574Z,1.47
2019-02-10T12:33:16.825Z,1.77
2019-02-10T12:35:49.773Z,1.17
2019-02-10T12:38:25.581Z,1.17
2019-02-10T12:40:56.570Z,1.33
2019-02-10T12:43:27.455Z,1.63
2019-02-10T12:45:59.620Z,1.50
2019-02-10T12:48:31.026Z,1.40
2019-02-10T12:51:01.872Z,2.20
2019-02-10T12:53:40.820Z,1.23
2019-02-10T12:56:10.962Z,1.93
2019-02-10T12:58:42.704Z,1.20
2019-02-10T13:01:16.133Z,1.60
2019-02-10T13:03:52.226Z,1.37
2019-02-10T13:06:22.968Z,1.77
2019-02-10T13:08:53.848Z,1.40
2019-02-10T13:11:25.166Z,1.40
2019-02-10T13:13:57.712Z,1.33
2019-02-10T13:16:30.068Z,1.77
2019-02-10T13:19:01.394Z,1.60
2019-02-10T13:21:36.944Z,1.80
2019-02-10T13:24:09.624Z,1.70
2019-02-10T13:26:40.508Z,1.30
2019-02-10T13:29:19.437Z,1.70
2019-02-10T13:31:48.423Z,1.23
2019-02-10T13:34:21.226Z,1.27
2019-02-10T13:36:54.191Z,1.50
2019-02-10T13:42:52.819Z,1.63
2019-02-10T13:45:40.693Z,1.40
2019-02-10T13:48:13.082Z,1.50
2019-02-10T13:50:46.964Z,1.43
2019-02-10T13:53:19.772Z,1.37
2019-02-10T13:55:52.045Z,1.60
2019-02-10T13:58:28.090Z,1.10
2019-02-10T14:00:58.832Z,1.40
2019-02-10T14:03:31.098Z,1.50
2019-02-10T14:06:08.838Z,1.60
2019-02-10T14:08:40.063Z,1.37
2019-02-10T14:11:13.579Z,1.50
2019-02-10T14:13:45.873Z,1.30
2019-02-10T14:16:18.081Z,1.50
2019-02-10T14:18:49.019Z,1.80
2019-02-10T14:21:20.348Z,1.60
2019-02-10T14:23:51.101Z,1.60
2019-02-10T14:26:27.565Z,1.40
2019-02-10T14:29:04.973Z,1.60
2019-02-10T14:31:39.479Z,1.47
2019-02-10T14:34:17.818Z,1.57
2019-02-10T14:36:50.316Z,1.70
2019-02-10T14:39:24.084Z,1.80
2019-02-10T14:41:59.319Z,1.60
2019-02-10T14:44:33.921Z,1.60
2019-02-10T14:47:14.642Z,1.50
2019-02-10T14:49:50.947Z,1.47
2019-02-10T14:52:22.860Z,1.57
2019-02-10T14:54:54.265Z,1.50
2019-02-10T14:57:24.876Z,1.57
2019-02-10T15:00:14.642Z,1.63
2019-02-10T15:02:50.707Z,1.80
2019-02-10T15:05:24.257Z,1.73
2019-02-10T15:07:55.603Z,1.97
2019-02-10T15:10:31.006Z,1.60
2019-02-10T15:13:03.703Z,1.67
2019-02-10T15:15:42.108Z,2.73
2019-02-10T15:18:12.799Z,1.87
2019-02-10T15:20:44.096Z,1.90
2019-02-10T15:23:15.483Z,1.80
2019-02-10T15:25:46.330Z,2.10
2019-02-10T15:28:17.217Z,2.07
2019-02-10T15:30:50.280Z,1.67
2019-02-10T15:33:21.803Z,1.87
2019-02-10T15:35:59.101Z,1.80
2019-02-10T15:38:31.289Z,1.77
2019-02-10T15:41:05.741Z,2.30
2019-02-10T15:43:37.624Z,2.03
2019-02-10T15:46:09.633Z,2.00
2019-02-10T15:48:46.552Z,1.90
2019-02-10T15:51:35.625Z,2.03
2019-02-10T15:53:56.366Z,1.90
2019-02-10T15:56:29.626Z,1.83
2019-02-10T15:59:00.529Z,2.00
2019-02-10T16:01:36.758Z,1.90
2019-02-10T16:04:08.270Z,2.07
2019-02-10T16:06:39.893Z,1.90
2019-02-10T16:09:12.728Z,2.57
2019-02-10T16:11:47.371Z,1.97
2019-02-10T16:14:23.196Z,2.20
2019-02-10T16:16:56.185Z,2.00
2019-02-10T16:19:33.865Z,2.30
2019-02-10T16:22:07.857Z,2.43
2019-02-10T16:24:41.278Z,2.43
2019-02-10T16:27:18.212Z,1.97
2019-02-10T16:30:08.856Z,2.53
2019-02-10T16:32:49.712Z,1.77
2019-02-10T16:35:15.830Z,2.00
2019-02-10T16:37:47.248Z,2.73
2019-02-10T16:40:18.482Z,2.40
2019-02-10T16:42:50.270Z,2.03
2019-02-10T16:45:25.091Z,2.00
2019-02-10T16:47:56.432Z,2.23
2019-02-10T16:50:31.866Z,2.37
2019-02-10T16:53:08.108Z,2.00
2019-02-10T16:55:40.414Z,1.80
2019-02-10T16:58:11.287Z,2.13
2019-02-10T17:00:46.165Z,2.23
2019-02-10T17:03:17.550Z,1.90
2019-02-10T17:05:48.510Z,1.73
2019-02-10T17:08:23.136Z,1.93
2019-02-10T17:10:54.258Z,2.00
2019-02-10T17:13:33.077Z,2.00
2019-02-10T17:16:05.382Z,1.73
2019-02-10T17:18:36.328Z,1.63
2019-02-10T17:21:09.616Z,1.80
2019-02-10T17:23:49.845Z,1.83
2019-02-10T17:26:23.491Z,1.70
2019-02-10T17:28:54.503Z,1.27
2019-02-10T17:31:28.640Z,1.40
2019-02-10T17:34:05.071Z,1.50
2019-02-10T17:36:41.457Z,1.30
2019-02-10T17:39:18.314Z,1.57
2019-02-10T17:41:53.071Z,1.70
2019-02-10T17:44:24.568Z,1.30
2019-02-10T17:46:55.601Z,2.10
2019-02-10T17:49:33.543Z,1.57
2019-02-10T17:52:07.624Z,1.80
2019-02-10T17:54:45.293Z,2.13
2019-02-10T17:57:16.107Z,2.50
2019-02-10T17:59:47.282Z,2.27
2019-02-10T18:02:20.263Z,2.03
2019-02-10T18:04:54.673Z,2.27
2019-02-10T18:07:25.816Z,1.97
2019-02-10T18:09:56.816Z,1.87
2019-02-10T18:12:28.403Z,1.83
2019-02-10T18:15:35.134Z,1.57
2019-02-10T18:18:15.039Z,1.63
2019-02-10T18:20:57.682Z,1.30
2019-02-10T18:23:47.432Z,1.70
2019-02-10T18:26:37.026Z,1.67
2019-02-10T18:29:27.839Z,1.27
2019-02-10T18:32:08.999Z,1.07
2019-02-10T18:34:59.838Z,1.30
2019-02-10T18:38:04.236Z,1.17
2019-02-10T18:40:56.195Z,0.83
2019-02-10T18:43:47.090Z,0.87
2019-02-10T18:46:34.260Z,0.90
2019-02-10T18:49:25.066Z,0.80
2019-02-10T18:52:20.193Z,0.83
2019-02-10T18:55:09.116Z,0.90
2019-02-10T18:58:04.679Z,0.70
2019-02-10T19:00:41.656Z,0.80
2019-02-10T19:03:34.618Z,0.60
2019-02-10T19:06:23.691Z,0.70
2019-02-10T19:09:20.091Z,0.90
2019-02-10T19:12:13.391Z,0.97
2019-02-10T19:15:12.454Z,0.77
2019-02-10T19:18:01.338Z,0.70
2019-02-10T19:21:05.328Z,0.90
2019-02-10T19:24:00.461Z,0.80
2019-02-10T19:27:06.181Z,0.70
2019-02-10T19:29:54.729Z,0.57
2019-02-10T19:32:49.997Z,0.93
2019-02-10T19:35:43.101Z,0.70
2019-02-10T19:38:29.558Z,0.77
2019-02-10T19:41:28.742Z,0.70
2019-02-10T19:44:13.981Z,1.10
2019-02-10T19:47:02.207Z,0.70
2019-02-10T19:49:51.866Z,0.70
2019-02-10T19:52:41.256Z,0.50
2019-02-10T19:55:37.292Z,0.90
2019-02-10T19:58:37.822Z,0.80
2019-02-10T20:01:23.214Z,0.50
2019-02-10T20:04:13.816Z,0.50
2019-02-10T20:06:53.088Z,0.50
2019-02-10T20:09:51.724Z,0.63
2019-02-10T20:12:40.744Z,0.90
2019-02-10T20:15:57.330Z,0.90
2019-02-10T20:18:58.874Z,0.60
2019-02-10T20:21:55.492Z,0.70
2019-02-10T20:24:44.703Z,0.80
2019-02-10T20:27:36.862Z,0.60
2019-02-10T20:30:31.646Z,0.70
2019-02-10T20:33:36.283Z,0.80
2019-02-10T20:36:29.337Z,0.40
2019-02-10T20:39:24.251Z,0.83
2019-02-10T20:42:13.840Z,0.70
2019-02-10T20:45:06.587Z,0.90
2019-02-10T20:48:15.139Z,0.70
2019-02-10T20:51:07.873Z,0.80
2019-02-10T20:53:48.325Z,0.50
2019-02-10T20:56:42.133Z,0.43
2019-02-10T20:59:31.060Z,0.43
2019-02-10T21:02:14.638Z,0.40
2019-02-10T21:05:10.050Z,0.60
2019-02-10T21:08:09.204Z,0.40
2019-02-10T21:11:04.092Z,0.23
2019-02-10T21:13:46.403Z,0.40
2019-02-10T21:16:34.226Z,0.40
2019-02-10T21:19:33.880Z,0.70
2019-02-10T21:22:26.529Z,0.33
2019-02-10T21:25:21.084Z,0.70
2019-02-10T21:28:17.430Z,0.50
2019-02-10T21:31:07.198Z,0.60
2019-02-10T21:33:57.211Z,0.40
2019-02-10T21:36:57.219Z,0.40
2019-02-10T21:40:02.120Z,0.40
2019-02-10T21:43:08.894Z,0.30
2019-02-10T21:46:02.186Z,0.40
2019-02-10T21:48:38.882Z,0.40
2019-02-10T21:51:10.898Z,0.20
2019-02-10T21:53:42.455Z,0.30
2019-02-10T21:56:13.300Z,0.40
2019-02-10T21:58:45.698Z,0.30
2019-02-10T22:01:16.759Z,0.43
2019-02-10T22:03:47.796Z,0.30
2019-02-10T22:06:20.918Z,0.50
2019-02-10T22:08:54.897Z,0.40
2019-02-10T22:11:26.020Z,0.60
2019-02-10T22:13:57.254Z,0.43
2019-02-10T22:16:30.709Z,0.70
2019-02-10T22:19:01.779Z,0.63
2019-02-10T22:21:33.432Z,0.70
2019-02-10T22:24:04.333Z,0.50
2019-02-10T22:26:35.000Z,0.50
2019-02-10T22:29:08.248Z,0.47
2019-02-10T22:31:39.117Z,0.57
2019-02-10T22:34:10.104Z,0.33
2019-02-10T22:36:41.155Z,0.57
2019-02-10T22:39:12.089Z,0.60
2019-02-10T22:41:46.105Z,0.53
2019-02-10T22:44:23.471Z,0.43
2019-02-10T22:46:55.847Z,0.50
2019-02-10T22:49:26.782Z,0.60
2019-02-10T22:52:01.054Z,0.50
2019-02-10T22:54:36.517Z,0.40
2019-02-10T22:57:10.765Z,0.40
2019-02-10T22:59:41.773Z,0.43
2019-02-10T23:02:15.298Z,0.57
2019-02-10T23:04:48.745Z,0.60
2019-02-10T23:07:19.864Z,0.40
2019-02-10T23:09:53.691Z,0.50
2019-02-10T23:12:27.833Z,0.53
2019-02-10T23:14:59.144Z,0.60
2019-02-10T23:17:33.109Z,0.40
2019-02-10T23:20:07.257Z,0.40
2019-02-10T23:22:38.253Z,0.40
2019-02-10T23:25:09.885Z,0.40
2019-02-10T23:27:41.078Z,0.43
2019-02-10T23:30:14.602Z,0.43
2019-02-10T23:32:45.398Z,0.43
2019-02-10T23:35:16.508Z,0.40
2019-02-10T23:37:47.469Z,0.37
2019-02-10T23:40:18.687Z,0.50
2019-02-10T23:42:50.112Z,0.60
2019-02-10T23:45:21.018Z,0.40
2019-02-10T23:47:51.757Z,0.50
2019-02-10T23:50:22.441Z,0.60
2019-02-10T23:52:53.709Z,0.50
2019-02-10T23:55:24.424Z,0.60
2019-02-10T23:57:55.819Z,0.67
